createdAt,value
2019-02-19T00:01:00.659Z,10.35
2019-02-19T00:03:27.810Z,11.68
2019-02-19T00:05:57.725Z,16.90
2019-02-19T00:08:24.877Z,10.90
2019-02-19T00:10:52.027Z,10.35
2019-02-19T00:13:19.205Z,7.58
2019-02-19T00:15:46.328Z,11.95
2019-02-19T00:18:13.482Z,13.50
2019-02-19T00:20:40.630Z,19.40
2019-02-19T00:23:07.780Z,12.35
2019-02-19T00:25:34.933Z,13.70
2019-02-19T00:28:02.083Z,39.80
2019-02-19T00:30:29.543Z,14.43
2019-02-19T00:32:56.692Z,12.03
2019-02-19T00:35:23.845Z,9.15
2019-02-19T00:37:50.992Z,10.70
2019-02-19T00:40:18.505Z,8.40
2019-02-19T00:42:45.908Z,10.83
2019-02-19T00:45:16.712Z,13.53
2019-02-19T00:47:41.743Z,12.20
2019-02-19T00:50:09.256Z,13.13
2019-02-19T00:52:36.352Z,11.28
2019-02-19T00:55:04.425Z,10.10
2019-02-19T00:57:31.574Z,13.15
2019-02-19T00:59:58.728Z,10.72
2019-02-19T01:02:25.883Z,14.98
2019-02-19T01:04:53.033Z,9.20
2019-02-19T01:07:20.179Z,18.60
2019-02-19T01:09:47.330Z,15.30
2019-02-19T01:12:14.784Z,16.82
2019-02-19T01:14:41.955Z,16.17
2019-02-19T01:17:09.086Z,14.18
2019-02-19T01:19:36.241Z,16.65
2019-02-19T01:22:03.387Z,10.25
2019-02-19T01:24:30.538Z,9.63
2019-02-19T01:27:00.453Z,9.77
2019-02-19T01:29:27.603Z,5.62
2019-02-19T01:31:54.495Z,9.73
2019-02-19T01:34:21.599Z,12.40
2019-02-19T01:36:48.749Z,9.28
2019-02-19T01:39:15.593Z,7.80
2019-02-19T01:41:43.063Z,6.42
2019-02-19T01:44:09.897Z,9.10
2019-02-19T01:46:37.043Z,8.23
2019-02-19T01:49:03.923Z,7.95
2019-02-19T01:51:31.039Z,11.47
2019-02-19T01:53:58.187Z,7.05
2019-02-19T01:56:25.032Z,7.00
2019-02-19T01:58:52.198Z,6.33
2019-02-19T02:01:22.198Z,7.97
2019-02-19T02:03:49.150Z,10.68
2019-02-19T02:06:16.163Z,7.42
2019-02-19T02:08:43.241Z,11.18
2019-02-19T02:11:10.392Z,11.15
2019-02-19T02:13:37.481Z,9.05
2019-02-19T02:16:04.694Z,12.70
2019-02-19T02:18:31.846Z,8.40
2019-02-19T02:20:59.096Z,7.45
2019-02-19T02:23:26.452Z,10.60
2019-02-19T02:25:53.603Z,10.78
2019-02-19T02:28:21.061Z,10.70
2019-02-19T02:30:48.220Z,10.23
2019-02-19T02:33:15.361Z,12.40
2019-02-19T02:35:42.516Z,6.80
2019-02-19T02:38:09.663Z,10.82
2019-02-19T02:40:36.819Z,5.05
2019-02-19T02:43:03.811Z,13.87
2019-02-19T02:45:31.115Z,12.93
2019-02-19T02:47:58.266Z,9.90
2019-02-19T02:50:25.416Z,19.85
2019-02-19T02:52:52.569Z,10.40
2019-02-19T02:55:19.717Z,9.83
2019-02-19T02:57:46.867Z,11.12
2019-02-19T03:00:14.325Z,8.83
2019-02-19T03:02:41.485Z,9.60
2019-02-19T03:05:09.242Z,7.17
2019-02-19T03:07:38.235Z,13.28
2019-02-19T03:10:05.389Z,9.90
2019-02-19T03:12:32.542Z,15.95
2019-02-19T03:14:59.686Z,6.37
2019-02-19T03:17:26.837Z,8.40
2019-02-19T03:19:53.991Z,8.63
2019-02-19T03:22:21.144Z,11.30
2019-02-19T03:24:48.290Z,6.67
2019-02-19T03:27:15.439Z,10.20
2019-02-19T03:29:42.691Z,8.13
2019-02-19T03:32:10.049Z,6.92
2019-02-19T03:34:37.203Z,9.80
2019-02-19T03:37:04.349Z,6.75
2019-02-19T03:39:31.499Z,10.43
2019-02-19T03:41:59.265Z,5.72
2019-02-19T03:44:26.414Z,11.68
2019-02-19T03:46:53.570Z,7.17
2019-02-19T03:49:20.717Z,9.95
2019-02-19T03:51:47.867Z,11.50
2019-02-19T03:54:15.018Z,8.85
2019-02-19T03:56:42.169Z,7.78
2019-02-19T03:59:09.320Z,6.17
2019-02-19T04:01:36.469Z,7.33
2019-02-19T04:04:03.620Z,7.28
2019-02-19T04:06:32.418Z,11.57
2019-02-19T04:08:59.764Z,7.90
2019-02-19T04:11:26.914Z,6.97
2019-02-19T04:13:54.067Z,11.63
2019-02-19T04:16:21.608Z,6.97
2019-02-19T04:18:49.288Z,7.92
2019-02-19T04:21:16.746Z,7.45
2019-02-19T04:23:43.898Z,7.33
2019-02-19T04:26:11.046Z,4.40
2019-02-19T04:28:45.859Z,7.40
2019-02-19T04:31:13.029Z,7.75
2019-02-19T04:33:40.182Z,5.45
2019-02-19T04:36:07.334Z,7.05
2019-02-19T04:38:34.480Z,5.83
2019-02-19T04:41:01.630Z,8.30
2019-02-19T04:43:28.782Z,8.15
2019-02-19T04:45:55.678Z,11.10
2019-02-19T04:48:22.479Z,8.95
2019-02-19T04:50:49.312Z,6.55
2019-02-19T04:53:16.202Z,7.83
2019-02-19T04:55:43.005Z,9.23
2019-02-19T04:58:10.147Z,11.15
2019-02-19T05:00:36.997Z,5.90
2019-02-19T05:03:03.835Z,6.70
2019-02-19T05:05:30.987Z,7.85
2019-02-19T05:07:57.831Z,5.70
2019-02-19T05:10:24.983Z,7.55
2019-02-19T05:12:52.135Z,16.02
2019-02-19T05:15:19.587Z,7.03
2019-02-19T05:17:46.743Z,11.28
2019-02-19T05:20:13.889Z,11.10
2019-02-19T05:22:41.039Z,14.67
2019-02-19T05:25:12.333Z,8.05
2019-02-19T05:27:44.352Z,8.23
2019-02-19T05:30:12.883Z,12.47
2019-02-19T05:32:41.967Z,6.83
2019-02-19T05:35:12.877Z,6.42
2019-02-19T05:37:43.215Z,4.80
2019-02-19T05:40:12.440Z,5.17
2019-02-19T05:42:43.127Z,17.95
2019-02-19T05:45:17.081Z,8.58
2019-02-19T05:47:44.189Z,10.00
2019-02-19T05:50:14.103Z,9.13
2019-02-19T05:52:41.293Z,14.55
2019-02-19T05:55:08.403Z,10.23
2019-02-19T05:57:38.730Z,9.77
2019-02-19T06:00:08.543Z,12.23
2019-02-19T06:02:37.229Z,7.87
2019-02-19T06:05:05.924Z,16.40
2019-02-19T06:07:33.065Z,7.37
2019-02-19T06:10:02.379Z,7.90
2019-02-19T06:12:29.519Z,8.98
2019-02-19T06:14:56.661Z,11.60
2019-02-19T06:17:27.814Z,11.33
2019-02-19T06:19:54.817Z,12.10
2019-02-19T06:22:22.056Z,12.77
2019-02-19T06:24:49.271Z,10.50
2019-02-19T06:27:16.723Z,12.73
2019-02-19T06:29:44.486Z,12.80
2019-02-19T06:32:11.636Z,7.95
2019-02-19T06:34:39.095Z,9.48
2019-02-19T06:37:06.488Z,12.95
2019-02-19T06:39:34.047Z,11.63
2019-02-19T06:42:03.927Z,7.70
2019-02-19T06:44:32.612Z,17.15
2019-02-19T06:47:06.689Z,17.32
2019-02-19T06:49:29.065Z,14.45
2019-02-19T06:51:56.214Z,10.90
2019-02-19T06:54:23.212Z,12.05
2019-02-19T06:56:50.515Z,10.93
2019-02-19T06:59:17.666Z,21.65
2019-02-19T07:01:49.425Z,15.30
2019-02-19T07:04:24.255Z,13.98
2019-02-19T07:06:51.406Z,13.45
2019-02-19T07:09:18.559Z,8.53
2019-02-19T07:11:45.707Z,18.37
2019-02-19T07:14:12.860Z,16.57
2019-02-19T07:16:40.009Z,10.20
2019-02-19T07:19:07.160Z,12.40
2019-02-19T07:21:34.309Z,16.60
2019-02-19T07:24:04.416Z,9.25
2019-02-19T07:26:30.454Z,30.80
2019-02-19T07:28:57.604Z,21.70
2019-02-19T07:31:25.117Z,9.03
2019-02-19T07:33:52.223Z,29.92
2019-02-19T07:36:19.363Z,23.55
2019-02-19T07:38:46.514Z,14.03
2019-02-19T07:41:13.668Z,10.90
2019-02-19T07:43:40.815Z,16.93
2019-02-19T07:46:07.965Z,27.05
2019-02-19T07:48:35.115Z,13.93
2019-02-19T07:51:02.267Z,14.55
2019-02-19T07:53:29.426Z,15.45
2019-02-19T07:55:56.568Z,59.27
2019-02-19T07:58:23.718Z,138.70
2019-02-19T08:00:50.869Z,69.03
2019-02-19T08:03:18.019Z,65.55
2019-02-19T08:05:45.170Z,80.35
2019-02-19T08:08:12.321Z,45.00
2019-02-19T08:10:39.473Z,38.00
2019-02-19T08:13:06.621Z,29.63
2019-02-19T08:15:33.775Z,31.77
2019-02-19T08:18:00.922Z,29.52
2019-02-19T08:20:28.074Z,18.62
2019-02-19T08:22:55.227Z,15.28
2019-02-19T08:25:22.389Z,12.37
2019-02-19T08:27:51.203Z,16.07
2019-02-19T08:30:18.527Z,9.50
2019-02-19T08:32:45.982Z,9.63
2019-02-19T08:35:13.128Z,11.38
2019-02-19T08:37:40.277Z,10.60
2019-02-19T08:40:08.673Z,12.35
2019-02-19T08:42:35.807Z,11.00
2019-02-19T08:45:04.114Z,7.85
2019-02-19T08:47:31.340Z,6.87
2019-02-19T08:49:58.490Z,7.67
2019-02-19T08:52:25.641Z,15.48
2019-02-19T08:54:52.790Z,8.10
2019-02-19T08:57:19.941Z,7.25
2019-02-19T08:59:47.098Z,9.63
2019-02-19T09:02:16.084Z,5.17
2019-02-19T09:04:43.239Z,5.57
2019-02-19T09:07:10.386Z,5.60
2019-02-19T09:09:37.548Z,8.70
2019-02-19T09:12:04.687Z,5.70
2019-02-19T09:14:31.837Z,4.05
2019-02-19T09:16:58.989Z,4.05
2019-02-19T09:19:26.292Z,6.07
2019-02-19T09:21:53.338Z,6.97
2019-02-19T09:24:20.441Z,14.18
2019-02-19T09:26:47.590Z,4.60
2019-02-19T09:29:14.741Z,4.28
2019-02-19T09:31:41.891Z,1.73
2019-02-19T09:34:09.041Z,3.37
2019-02-19T09:36:36.191Z,2.63
2019-02-19T09:39:04.878Z,2.83
2019-02-19T09:41:33.260Z,9.30
2019-02-19T09:44:00.408Z,7.77
2019-02-19T09:46:27.559Z,2.47
2019-02-19T09:48:54.709Z,13.20
2019-02-19T09:51:21.860Z,7.40
2019-02-19T09:53:49.012Z,7.67
2019-02-19T09:56:16.161Z,8.30
2019-02-19T09:58:43.312Z,2.90
2019-02-19T10:01:10.770Z,13.97
2019-02-19T10:03:37.921Z,6.80
2019-02-19T10:06:05.077Z,6.87
2019-02-19T10:08:32.222Z,4.03
2019-02-19T10:10:59.378Z,2.37
2019-02-19T10:13:26.524Z,9.20
2019-02-19T10:15:53.674Z,2.73
2019-02-19T10:18:20.826Z,2.50
2019-02-19T10:20:47.978Z,2.87
2019-02-19T10:23:15.131Z,2.33
2019-02-19T10:25:42.275Z,3.17
2019-02-19T10:28:09.433Z,12.00
2019-02-19T10:30:36.585Z,5.27
2019-02-19T10:33:03.727Z,6.27
2019-02-19T10:35:30.878Z,8.13
2019-02-19T10:37:58.335Z,3.57
2019-02-19T10:40:25.487Z,2.20
2019-02-19T10:42:52.635Z,15.60
2019-02-19T10:45:23.475Z,8.57
2019-02-19T10:47:50.623Z,2.63
2019-02-19T10:50:17.774Z,3.37
2019-02-19T10:52:44.926Z,2.17
2019-02-19T10:55:12.075Z,3.47
2019-02-19T10:57:39.226Z,3.27
2019-02-19T11:00:08.526Z,2.73
2019-02-19T11:02:35.680Z,2.20
2019-02-19T11:05:03.754Z,1.83
2019-02-19T11:07:30.900Z,1.93
2019-02-19T11:09:57.901Z,7.60
2019-02-19T11:12:25.202Z,7.27
2019-02-19T11:14:52.382Z,5.33
2019-02-19T11:17:19.909Z,6.60
2019-02-19T11:19:47.268Z,5.57
2019-02-19T11:22:14.420Z,3.83
2019-02-19T11:24:41.568Z,4.03
2019-02-19T11:27:08.561Z,1.60
2019-02-19T11:29:35.870Z,6.17
2019-02-19T11:32:03.027Z,16.23
2019-02-19T11:34:30.171Z,3.30
2019-02-19T11:36:57.985Z,3.20
2019-02-19T13:27:32.615Z,3.60
2019-02-19T13:29:59.793Z,4.27
2019-02-19T13:32:26.918Z,3.80
2019-02-19T13:34:54.066Z,6.50
2019-02-19T13:37:21.217Z,5.03
2019-02-19T13:39:48.366Z,5.43
2019-02-19T13:42:15.828Z,8.30
2019-02-19T13:44:43.301Z,3.53
2019-02-19T13:59:29.922Z,5.85
2019-02-19T14:01:57.638Z,5.80
2019-02-19T14:04:24.788Z,7.75
2019-02-19T14:06:51.938Z,5.10
2019-02-19T14:09:19.088Z,4.60
2019-02-19T14:11:46.239Z,3.00
2019-02-19T14:14:15.232Z,3.80
2019-02-19T14:16:44.227Z,4.33
2019-02-19T14:19:21.012Z,6.80
2019-02-19T14:22:01.568Z,13.25
2019-02-19T14:24:39.163Z,7.25
2019-02-19T14:27:14.282Z,24.75
2019-02-19T14:29:49.137Z,9.78
2019-02-19T14:32:33.179Z,10.63
2019-02-19T14:35:18.762Z,6.92
2019-02-19T14:37:56.971Z,9.17
2019-02-19T14:40:32.113Z,5.13
2019-02-19T14:43:01.110Z,9.63
2019-02-19T14:45:33.173Z,6.25
2019-02-19T14:48:11.379Z,6.42
2019-02-19T14:50:43.137Z,6.05
2019-02-19T14:53:22.285Z,5.25
2019-02-19T14:56:08.159Z,4.17
2019-02-19T14:58:52.220Z,6.40
2019-02-19T15:01:21.200Z,5.40
2019-02-19T15:04:06.861Z,11.20
2019-02-19T15:06:52.984Z,7.28
2019-02-19T15:09:21.974Z,12.80
2019-02-19T15:12:02.952Z,8.55
2019-02-19T15:14:31.951Z,7.50
2019-02-19T15:17:17.832Z,7.20
2019-02-19T15:20:03.723Z,18.12
2019-02-19T15:22:32.748Z,8.75
2019-02-19T15:25:01.710Z,9.53
2019-02-19T15:27:30.705Z,18.17
2019-02-19T15:30:02.769Z,7.50
2019-02-19T15:32:37.346Z,6.78
2019-02-19T15:35:06.293Z,11.30
2019-02-19T15:37:38.359Z,17.62
2019-02-19T15:40:17.486Z,17.75
2019-02-19T15:42:46.477Z,6.00
2019-02-19T15:45:18.543Z,12.47
2019-02-19T15:47:56.448Z,8.80
2019-02-19T15:50:42.029Z,7.05
2019-02-19T15:53:19.627Z,9.90
2019-02-19T15:56:03.673Z,14.00
2019-02-19T15:58:50.482Z,9.03
2019-02-19T16:01:25.621Z,12.95
2019-02-19T16:03:54.628Z,14.53
2019-02-19T16:06:23.609Z,6.47
2019-02-19T16:08:55.522Z,8.93
2019-02-19T16:11:27.125Z,13.35
2019-02-19T16:14:05.027Z,9.23
2019-02-19T16:16:48.766Z,5.37
2019-02-19T16:19:34.044Z,12.13
2019-02-19T16:22:06.111Z,7.62
2019-02-19T16:24:40.990Z,4.83
2019-02-19T16:27:09.937Z,5.87
2019-02-19T16:29:38.928Z,6.35
2019-02-19T16:32:07.920Z,12.50
2019-02-19T16:34:36.914Z,17.85
2019-02-19T16:37:05.908Z,13.23
2019-02-19T16:39:34.901Z,5.37
2019-02-19T16:42:16.184Z,10.90
2019-02-19T16:44:47.948Z,5.92
2019-02-19T16:47:16.935Z,5.20
2019-02-19T16:50:07.678Z,7.42
2019-02-19T16:52:45.336Z,11.70
2019-02-19T16:55:30.923Z,8.88
2019-02-19T16:57:59.915Z,7.53
2019-02-19T17:00:37.824Z,9.23
2019-02-19T17:03:12.339Z,7.10
2019-02-19T17:05:42.520Z,9.25
2019-02-19T17:08:21.079Z,4.55
2019-02-19T17:10:50.073Z,8.05
2019-02-19T17:13:21.889Z,11.30
2019-02-19T17:16:07.414Z,7.58
2019-02-19T17:18:45.317Z,7.90
2019-02-19T17:21:26.911Z,6.12
2019-02-19T17:24:14.334Z,7.53
2019-02-19T17:26:51.930Z,6.08
2019-02-19T17:29:36.286Z,8.75
2019-02-19T17:32:17.565Z,5.62
2019-02-19T17:34:46.561Z,7.62
2019-02-19T17:37:21.697Z,4.62
2019-02-19T17:39:59.292Z,7.20
2019-02-19T17:42:40.624Z,15.87
2019-02-19T17:45:12.948Z,9.78
2019-02-19T17:47:56.998Z,7.92
2019-02-19T17:50:44.725Z,6.85
2019-02-19T17:53:16.493Z,18.10
2019-02-19T17:55:48.243Z,8.28
2019-02-19T17:58:18.601Z,12.00
2019-02-19T18:00:56.678Z,15.28
2019-02-19T18:03:25.773Z,13.65
2019-02-19T18:06:13.095Z,7.45
2019-02-19T18:08:42.088Z,13.20
2019-02-19T18:11:11.085Z,11.95
2019-02-19T18:13:40.076Z,18.57
2019-02-19T18:16:21.359Z,18.10
2019-02-19T18:18:51.987Z,15.70
2019-02-19T18:21:19.349Z,13.90
2019-02-19T18:23:46.502Z,19.82
2019-02-19T18:26:15.494Z,11.78
2019-02-19T18:28:42.643Z,15.55
2019-02-19T18:31:09.792Z,13.13
2019-02-19T18:33:36.942Z,10.00
2019-02-19T18:36:04.095Z,12.40
2019-02-19T18:38:31.711Z,10.05
2019-02-19T18:40:59.014Z,18.62
2019-02-19T18:43:26.471Z,8.88
2019-02-19T18:45:53.619Z,9.67
2019-02-19T18:48:20.769Z,17.25
2019-02-19T18:50:50.090Z,19.05
2019-02-19T18:53:16.913Z,15.60
2019-02-19T18:55:44.062Z,15.13
2019-02-19T18:58:11.217Z,8.28
2019-02-19T19:00:38.363Z,9.90
2019-02-19T19:03:05.520Z,10.32
2019-02-19T19:05:32.665Z,11.33
2019-02-19T19:07:59.965Z,7.90
2019-02-19T19:10:27.274Z,7.92
2019-02-19T19:12:54.424Z,14.90
2019-02-19T19:15:21.575Z,8.23
2019-02-19T19:17:48.736Z,7.58
2019-02-19T19:20:15.878Z,6.35
2019-02-19T19:22:43.332Z,8.25
2019-02-19T19:25:10.483Z,10.98
2019-02-19T19:27:37.649Z,14.63
2019-02-19T19:30:06.633Z,7.90
2019-02-19T19:32:33.783Z,7.60
2019-02-19T19:35:00.931Z,10.82
2019-02-19T19:37:28.082Z,8.93
2019-02-19T19:39:55.232Z,13.03
2019-02-19T19:42:22.398Z,7.00
2019-02-19T19:44:49.534Z,5.73
2019-02-19T19:47:16.682Z,8.13
2019-02-19T19:49:43.837Z,8.80
2019-02-19T19:52:10.983Z,5.95
2019-02-19T19:54:38.136Z,11.90
2019-02-19T19:57:05.299Z,6.57
2019-02-19T19:59:32.437Z,6.95
2019-02-19T20:01:59.585Z,12.98
2019-02-19T20:04:26.735Z,7.72
2019-02-19T20:06:55.426Z,7.12
2019-02-19T20:09:22.573Z,8.73
2019-02-19T20:11:49.723Z,7.10
2019-02-19T20:14:16.875Z,7.17
2019-02-19T20:16:44.126Z,9.68
2019-02-19T20:19:11.513Z,9.83
2019-02-19T20:21:38.632Z,11.40
2019-02-19T20:24:05.783Z,6.35
2019-02-19T20:26:34.643Z,10.40
2019-02-19T20:29:02.810Z,5.45
2019-02-19T20:31:30.313Z,8.90
2019-02-19T20:33:57.766Z,11.48
2019-02-19T20:36:24.917Z,14.10
2019-02-19T20:38:52.075Z,4.30
2019-02-19T20:41:19.218Z,3.60
2019-02-19T20:43:47.903Z,6.80
2019-02-19T20:46:15.053Z,10.70
2019-02-19T20:48:42.583Z,10.82
2019-02-19T20:51:10.018Z,8.38
2019-02-19T20:53:39.741Z,12.88
2019-02-19T20:56:07.435Z,8.78
2019-02-19T20:58:35.139Z,10.40
2019-02-19T21:01:03.211Z,7.72
2019-02-19T21:03:30.022Z,4.93
2019-02-19T21:05:59.120Z,8.05
2019-02-19T21:08:26.166Z,7.03
2019-02-19T21:10:54.855Z,9.48
2019-02-19T21:13:22.004Z,7.42
2019-02-19T21:15:49.153Z,17.40
2019-02-19T21:18:16.613Z,6.62
2019-02-19T21:20:43.763Z,6.70
2019-02-19T21:23:12.145Z,8.65
2019-02-19T21:25:39.297Z,8.13
2019-02-19T21:28:06.443Z,8.60
2019-02-19T21:30:33.332Z,8.00
2019-02-19T21:33:00.437Z,5.28
2019-02-19T21:35:27.281Z,4.42
2019-02-19T21:37:54.430Z,10.33
2019-02-19T21:40:21.582Z,6.03
2019-02-19T21:42:48.469Z,4.75
2019-02-19T21:45:15.578Z,7.00
2019-02-19T21:47:44.301Z,4.37
2019-02-19T21:50:12.609Z,4.55
2019-02-19T21:52:39.484Z,5.50
2019-02-19T21:55:10.633Z,9.83
2019-02-19T21:57:37.522Z,4.28
2019-02-19T22:00:08.621Z,6.00
2019-02-19T22:02:35.631Z,4.90
2019-02-19T22:05:02.854Z,9.65
2019-02-19T22:07:30.685Z,5.33
2019-02-19T22:09:57.833Z,6.85
2019-02-19T22:12:24.985Z,7.58
2019-02-19T22:14:51.828Z,5.55
2019-02-19T22:17:18.719Z,7.78
2019-02-19T22:19:45.514Z,9.13
2019-02-19T22:22:12.971Z,20.45
2019-02-19T22:24:40.137Z,7.87
2019-02-19T22:27:07.233Z,16.85
2019-02-19T22:29:34.116Z,13.03
2019-02-19T22:32:01.266Z,8.83
2019-02-19T22:34:28.480Z,13.40
2019-02-19T22:36:55.567Z,20.97
2019-02-19T22:39:22.422Z,14.17
2019-02-19T22:41:49.254Z,10.13
2019-02-19T22:44:16.404Z,10.70
2019-02-19T22:46:43.555Z,8.33
2019-02-19T22:49:13.447Z,15.83
2019-02-19T22:51:40.315Z,15.83
2019-02-19T22:54:26.203Z,16.25
2019-02-19T22:56:53.355Z,12.58
2019-02-19T22:59:20.505Z,8.68
2019-02-19T23:01:49.806Z,15.70
2019-02-19T23:04:16.649Z,7.60
2019-02-19T23:06:43.495Z,5.10
2019-02-19T23:09:10.645Z,7.30
2019-02-19T23:11:37.793Z,4.28
2019-02-19T23:14:04.789Z,7.50
2019-02-19T23:16:31.788Z,9.98
2019-02-19T23:18:58.940Z,3.80
2019-02-19T23:21:25.784Z,10.82
2019-02-19T23:23:57.862Z,4.47
2019-02-19T23:26:27.001Z,5.42
2019-02-19T23:28:55.556Z,7.05
2019-02-19T23:31:22.425Z,6.47
2019-02-19T23:33:49.522Z,8.00
2019-02-19T23:36:18.208Z,7.85
2019-02-19T23:38:45.358Z,7.05
2019-02-19T23:41:12.509Z,5.25
2019-02-19T23:43:39.662Z,11.55
2019-02-19T23:46:06.810Z,7.20
2019-02-19T23:48:33.655Z,5.35
2019-02-19T23:51:00.810Z,12.23
2019-02-19T23:53:28.262Z,6.73
2019-02-19T23:55:55.415Z,7.55
2019-02-19T23:58:22.585Z,11.40
